首页
METAR-TAF:

METAR-TAF

机场 :

喀山國際機場

喀山, 俄罗斯

纬度: 55-47N, 经度: 049-12E, 海拔: 125米

当前天气观测

该预报发布于35分钟前的06:00 UTC
风速10节,风向东南,有时为19节阵风
温度 -11°C
湿度 78%
气压 1020 hPa
能見度: 7000
多云层高于4500英尺
小雪, 低吹雪

METAR: UWKD 290600Z 14005G10MPS 7000 -SN DRSN BKN045 M11/M14 Q1020 R11/420545 NOSIG RMK QFE755/1007

时间: 09:35 (06:35 UTC)

预报

该预报发布于1小时和35分钟前的05:00 UTC
预报有效从29日的 06点(UTC)到 30日的 06点(UTC)
风速12节,风向南转南东,有时为25节阵风
能見度: 6000
阴天层高于1100英尺
小雪, 高吹雪
短暂存在
从 29日的 06点(UTC)到 29日的 12点(UTC)
能見度: 2000
多云层高于500英尺
雪, 高吹雪
短暂存在
从 29日的 15点(UTC)到 30日的 03点(UTC)
能見度: 2000
多云层高于500英尺
雪, 高吹雪

TAF: UWKD 290500Z 2906/3006 15006G13MPS 6000 -SN BLSN OVC011 TXM06/2912Z TNM11/2906Z TEMPO 2906/2912 2000 SN BLSN BKN005 TEMPO 2915/3003 2000 SN BLSN BKN005

超过4000个机场的气象观测和天气预报(METAR&TAF报告)。

可查询的气象台以黄色和红色小点在地图上表示。

将鼠标移到小点上方,可查看气象台名称。

然后点击查看天气观测和预报。

如需切换地图:点击带黑十字的绿色按钮放大地图;点击带横线的绿色按钮缩小地图;或者点击绿色箭头查看邻近地区的地图。


METAR-TAF: